Time;durP1;ratioP1;P1;durP2;ratioP2;P2;SDS_P1;SDS_P2;PMS_P1;PMS_P2;Temp;Humidity;BMP_temperature;BMP_pressure;BME280_temperature;BME280_humidity;BME280_pressure;Samples;Min_cycle;Max_cycle;Signal;HPM_P1;HPM_P2
2023/08/01 00:02:49;;;;;;;13.63;5.63;;;;;;;16.15;100.00;99876.13;10296862;28;20042;-68
2023/08/01 00:07:50;;;;;;;5.53;4.22;;;;;;;16.11;100.00;99869.53;10265171;28;20125;-68
2023/08/01 00:12:50;;;;;;;15.68;4.88;;;;;;;16.06;100.00;99862.13;10279596;28;20057;-69
2023/08/01 00:17:50;;;;;;;12.20;4.68;;;;;;;16.01;100.00;99854.69;10280973;28;20050;-68
2023/08/01 00:22:51;;;;;;;9.00;4.53;;;;;;;15.93;100.00;99851.63;10297295;28;20035;-68
2023/08/01 00:27:52;;;;;;;13.18;4.10;;;;;;;15.86;100.00;99835.44;10264912;28;20095;-68
2023/08/01 00:32:53;;;;;;;10.05;4.60;;;;;;;15.87;100.00;99831.63;10279519;28;20038;-69
2023/08/01 00:37:53;;;;;;;12.35;4.35;;;;;;;15.87;100.00;99825.34;10296359;28;20058;-67
2023/08/01 00:42:56;;;;;;;4.85;3.80;;;;;;;15.91;100.00;99821.81;10296878;28;20039;-68
2023/08/01 00:47:56;;;;;;;9.75;4.47;;;;;;;16.02;100.00;99831.78;10294970;28;20030;-68
2023/08/01 00:52:57;;;;;;;16.92;4.57;;;;;;;16.13;100.00;99816.28;10279127;28;20046;-68
2023/08/01 00:57:57;;;;;;;5.90;3.67;;;;;;;16.24;100.00;99817.19;10278549;28;20431;-68
2023/08/01 01:02:58;;;;;;;15.48;4.60;;;;;;;16.20;100.00;99810.59;10278656;28;20086;-68
2023/08/01 01:07:58;;;;;;;5.80;3.38;;;;;;;16.28;100.00;99810.94;10295592;28;20023;-68
2023/08/01 01:12:59;;;;;;;7.00;3.78;;;;;;;16.36;100.00;99815.09;10295446;28;20041;-70
2023/08/01 01:17:59;;;;;;;6.72;3.50;;;;;;;16.34;100.00;99816.47;10296598;28;20034;-69
2023/08/01 01:23:00;;;;;;;15.70;3.58;;;;;;;16.29;100.00;99806.31;10282488;28;20059;-68
2023/08/01 01:28:00;;;;;;;10.52;3.95;;;;;;;16.26;100.00;99807.66;10276961;28;20042;-69
2023/08/01 01:33:01;;;;;;;13.18;4.70;;;;;;;16.37;100.00;99815.91;10277770;28;20046;-69
2023/08/01 01:38:05;;;;;;;3.80;3.50;;;;;;;16.46;100.00;99800.69;10292750;28;20129;-69
2023/08/01 01:43:05;;;;;;;9.98;3.60;;;;;;;16.55;100.00;99804.56;10276930;28;20043;-69
2023/08/01 01:48:06;;;;;;;5.55;3.13;;;;;;;16.60;100.00;99803.78;10276772;28;20531;-69
2023/08/01 01:53:06;;;;;;;8.07;3.83;;;;;;;16.65;100.00;99799.16;10294768;28;20035;-69
2023/08/01 01:58:07;;;;;;;14.10;4.82;;;;;;;16.59;100.00;99800.25;10293756;28;20533;-69
2023/08/01 02:03:10;;;;;;;19.70;4.05;;;;;;;16.63;100.00;99804.09;10292189;28;20034;-67
2023/08/01 02:08:10;;;;;;;9.23;4.20;;;;;;;16.61;100.00;99795.31;10293785;28;20151;-68
2023/08/01 02:13:10;;;;;;;4.55;4.15;;;;;;;16.59;100.00;99791.19;10275716;28;20071;-69
2023/08/01 02:18:11;;;;;;;13.45;4.43;;;;;;;16.52;100.00;99784.03;10292160;28;20090;-67
2023/08/01 02:23:11;;;;;;;13.93;4.65;;;;;;;16.58;100.00;99779.44;10292020;28;20068;-69
2023/08/01 02:28:12;;;;;;;13.35;5.07;;;;;;;16.56;100.00;99778.91;10291715;28;20037;-68
2023/08/01 02:33:12;;;;;;;10.70;5.40;;;;;;;16.51;100.00;99787.88;10292084;28;20133;-68
2023/08/01 02:38:13;;;;;;;12.38;4.95;;;;;;;16.40;100.00;99793.53;10258613;28;20063;-69
2023/08/01 02:43:13;;;;;;;16.65;5.13;;;;;;;16.37;100.00;99785.84;10292048;28;20046;-69
2023/08/01 02:48:14;;;;;;;10.68;3.85;;;;;;;16.42;100.00;99789.44;10291978;28;20481;-69
2023/08/01 02:53:14;;;;;;;10.23;6.00;;;;;;;16.49;100.00;99803.69;10274740;28;20038;-69
2023/08/01 02:58:14;;;;;;;9.75;5.45;;;;;;;16.45;100.00;99791.66;10291286;28;20439;-70
2023/08/01 03:03:15;;;;;;;8.48;4.57;;;;;;;16.32;100.00;99789.38;10292264;28;20049;-68
2023/08/01 03:08:15;;;;;;;8.10;5.38;;;;;;;16.35;100.00;99798.97;10291625;28;20035;-69
2023/08/01 03:13:16;;;;;;;20.63;6.53;;;;;;;16.44;100.00;99798.22;10292251;28;20042;-68
2023/08/01 03:18:16;;;;;;;15.90;5.80;;;;;;;16.49;100.00;99795.50;10292620;28;20035;-70
2023/08/01 03:23:16;;;;;;;21.92;6.18;;;;;;;16.45;100.00;99804.50;10291099;28;20122;-69
2023/08/01 03:28:17;;;;;;;13.68;6.55;;;;;;;16.19;100.00;99798.84;10291367;28;20034;-70
2023/08/01 03:33:17;;;;;;;13.40;5.40;;;;;;;16.07;100.00;99808.31;10273940;28;20034;-70
2023/08/01 03:38:18;;;;;;;16.15;5.47;;;;;;;16.03;100.00;99816.22;10278680;28;20328;-70
2023/08/01 03:43:23;;;;;;;9.90;5.03;;;;;;;16.01;100.00;99821.91;10298988;28;20042;-70
2023/08/01 03:48:23;;;;;;;11.13;4.65;;;;;;;16.00;100.00;99811.25;10300469;28;20038;-69
2023/08/01 03:53:24;;;;;;;14.00;5.25;;;;;;;16.05;100.00;99816.78;10285729;28;20039;-68
2023/08/01 03:58:24;;;;;;;15.45;5.75;;;;;;;16.11;100.00;99810.25;10297652;28;20034;-69
2023/08/01 04:03:24;;;;;;;10.90;4.90;;;;;;;16.10;100.00;99816.81;10298658;28;20115;-71
2023/08/01 04:08:25;;;;;;;12.48;5.40;;;;;;;16.10;100.00;99810.53;10296929;28;20495;-70
2023/08/01 04:13:25;;;;;;;8.68;3.88;;;;;;;16.09;100.00;99811.63;10298012;28;20054;-70
2023/08/01 04:18:26;;;;;;;4.88;3.28;;;;;;;16.05;100.00;99814.06;10297243;28;20041;-70
2023/08/01 04:23:26;;;;;;;10.70;3.72;;;;;;;16.06;100.00;99807.50;10296896;28;20043;-70
2023/08/01 04:28:26;;;;;;;12.13;3.90;;;;;;;16.11;100.00;99799.31;10295757;28;20039;-69
2023/08/01 04:33:27;;;;;;;9.98;3.90;;;;;;;16.09;100.00;99811.63;10279144;28;20050;-69
2023/08/01 04:38:27;;;;;;;10.48;4.85;;;;;;;16.07;100.00;99814.59;10262895;28;20493;-69
2023/08/01 04:43:28;;;;;;;10.98;4.35;;;;;;;16.00;100.00;99811.25;10296675;28;20125;-69
2023/08/01 04:48:28;;;;;;;11.15;3.80;;;;;;;16.07;100.00;99821.97;10278411;28;20039;-69
2023/08/01 04:53:28;;;;;;;9.43;3.50;;;;;;;16.10;100.00;99825.00;10296614;28;20399;-69
2023/08/01 04:58:30;;;;;;;21.15;4.55;;;;;;;16.15;100.00;99821.50;10294027;28;20123;-68
2023/08/01 05:03:30;;;;;;;12.63;5.30;;;;;;;16.18;100.00;99830.00;10278616;28;20129;-68
2023/08/01 05:08:31;;;;;;;5.65;3.08;;;;;;;16.24;100.00;99825.38;10295332;28;20086;-69
2023/08/01 05:13:31;;;;;;;14.90;4.40;;;;;;;16.21;100.00;99815.00;10277418;28;20448;-69
2023/08/01 05:18:32;;;;;;;8.70;4.38;;;;;;;16.17;100.00;99813.84;10295231;28;20031;-69
2023/08/01 05:23:32;;;;;;;6.75;3.72;;;;;;;16.19;100.00;99817.16;10278541;28;20065;-69
2023/08/01 05:28:32;;;;;;;4.40;2.97;;;;;;;16.22;100.00;99816.63;10292570;28;20038;-69
2023/08/01 05:33:33;;;;;;;13.80;4.72;;;;;;;16.64;100.00;99815.84;10276324;28;20064;-69
2023/08/01 05:38:33;;;;;;;9.20;3.83;;;;;;;17.37;100.00;99824.13;10277302;28;20066;-67
2023/08/01 05:43:34;;;;;;;11.02;3.75;;;;;;;17.49;100.00;99840.34;10294039;28;20035;-69
2023/08/01 05:48:34;;;;;;;5.40;3.08;;;;;;;18.10;100.00;99837.72;10293380;28;20062;-68
2023/08/01 05:53:34;;;;;;;6.88;4.13;;;;;;;17.95;100.00;99846.75;10275642;28;20420;-68
2023/08/01 05:58:35;;;;;;;10.32;3.88;;;;;;;17.88;100.00;99847.00;10293599;28;20094;-67
2023/08/01 06:03:35;;;;;;;7.40;3.80;;;;;;;18.20;100.00;99851.44;10291568;28;20126;-66
2023/08/01 06:08:36;;;;;;;10.43;4.30;;;;;;;17.69;100.00;99840.38;10293147;28;20039;-67
2023/08/01 06:13:36;;;;;;;6.47;3.33;;;;;;;17.51;100.00;99846.34;10293383;28;20039;-67
2023/08/01 06:18:37;;;;;;;10.25;4.05;;;;;;;17.38;100.00;99848.47;10276156;28;20027;-66
2023/08/01 06:23:37;;;;;;;8.63;3.88;;;;;;;18.90;100.00;99842.59;10292793;28;20044;-67
2023/08/01 06:28:37;;;;;;;11.40;3.88;;;;;;;20.08;100.00;99853.84;10292333;28;20059;-67
2023/08/01 06:33:38;;;;;;;8.05;3.38;;;;;;;18.79;100.00;99853.59;10291701;28;20121;-67
2023/08/01 06:38:38;;;;;;;5.30;4.43;;;;;;;18.06;100.00;99872.22;10292154;28;20114;-67
2023/08/01 06:43:39;;;;;;;8.25;3.45;;;;;;;17.87;100.00;99871.94;10292620;28;20105;-67
2023/08/01 06:48:39;;;;;;;5.50;3.25;;;;;;;18.70;100.00;99873.63;10274634;28;20039;-68
2023/08/01 06:53:39;;;;;;;6.07;3.97;;;;;;;20.44;100.00;99870.88;10273862;28;20034;-67
2023/08/01 06:58:40;;;;;;;7.70;4.10;;;;;;;20.39;100.00;99870.94;10275201;28;20050;-66
2023/08/01 07:03:40;;;;;;;5.03;2.65;;;;;;;21.44;100.00;99885.03;10274075;28;20045;-68
2023/08/01 07:08:41;;;;;;;9.38;3.80;;;;;;;20.31;100.00;99894.34;10292469;28;20479;-68
2023/08/01 07:13:41;;;;;;;14.70;4.35;;;;;;;20.14;100.00;99897.50;10296141;28;20042;-67
2023/08/01 07:18:41;;;;;;;8.55;3.03;;;;;;;19.91;100.00;99899.03;10299646;28;20035;-66
2023/08/01 07:23:42;;;;;;;9.10;3.08;;;;;;;20.17;100.00;99901.63;10281878;28;20494;-66
2023/08/01 07:28:43;;;;;;;12.60;3.78;;;;;;;21.58;100.00;99902.47;10297005;28;20035;-67
2023/08/01 07:33:43;;;;;;;4.38;2.38;;;;;;;21.49;100.00;99916.09;10299363;28;20042;-67
2023/08/01 07:38:43;;;;;;;5.03;3.10;;;;;;;22.10;100.00;99910.88;10298840;28;20027;-67
2023/08/01 07:43:44;;;;;;;10.65;3.13;;;;;;;21.76;100.00;99911.88;10298908;28;20312;-67
2023/08/01 07:48:44;;;;;;;13.32;2.70;;;;;;;21.98;100.00;99909.34;10298409;28;20431;-66
2023/08/01 07:53:45;;;;;;;22.88;3.03;;;;;;;20.73;100.00;99914.13;10298448;28;20043;-67
2023/08/01 07:58:45;;;;;;;7.05;3.20;;;;;;;20.57;100.00;99917.00;10280933;28;20043;-67
2023/08/01 08:03:45;;;;;;;7.90;2.78;;;;;;;20.64;100.00;99925.75;10298231;28;20489;-66
2023/08/01 08:08:46;;;;;;;13.32;3.35;;;;;;;21.45;100.00;99926.06;10297496;28;20039;-67
2023/08/01 08:13:46;;;;;;;7.38;3.58;;;;;;;20.44;100.00;99934.13;10263758;28;20065;-65
2023/08/01 08:18:47;;;;;;;6.22;2.72;;;;;;;19.79;100.00;99937.00;10296572;28;20094;-68
2023/08/01 08:23:47;;;;;;;6.15;3.08;;;;;;;19.30;100.00;99945.94;10296033;28;20117;-66
2023/08/01 08:28:47;;;;;;;6.10;2.42;;;;;;;19.03;100.00;99949.84;10296164;28;20027;-67
2023/08/01 08:33:48;;;;;;;8.18;3.53;;;;;;;20.46;100.00;99948.41;10295153;28;20411;-67
2023/08/01 08:38:50;;;;;;;4.18;2.92;;;;;;;21.63;100.00;99949.25;10255746;29;20132;-67
2023/08/01 08:43:50;;;;;;;9.40;3.33;;;;;;;21.59;100.00;99951.75;10222398;29;20487;-67
2023/08/01 08:48:50;;;;;;;8.90;4.43;;;;;;;21.99;100.00;99949.63;10207126;29;20031;-67
2023/08/01 08:53:53;;;;;;;4.55;3.03;;;;;;;21.05;100.00;99949.31;10257332;29;20035;-68
2023/08/01 08:58:53;;;;;;;4.32;2.55;;;;;;;22.01;100.00;99954.81;10242146;29;20050;-68
2023/08/01 09:03:56;;;;;;;12.73;4.30;;;;;;;22.27;100.00;99949.78;10255471;29;20206;-67
2023/08/01 09:09:18;;;;;;;3.55;2.80;;;;;;;23.39;100.00;99949.84;10253982;29;20035;-66
2023/08/01 09:14:19;;;;;;;3.28;2.78;;;;;;;23.99;100.00;99949.72;10255403;29;20155;-68
2023/08/01 09:19:20;;;;;;;2.95;2.35;;;;;;;24.91;100.00;99958.63;10221550;29;20059;-67
2023/08/01 09:24:21;;;;;;;3.80;2.85;;;;;;;24.97;100.00;99962.09;10237379;29;20050;-66
2023/08/01 09:29:21;;;;;;;3.80;2.50;;;;;;;23.08;100.00;99967.00;10254240;29;20071;-67
2023/08/01 09:34:23;;;;;;;9.18;3.50;;;;;;;23.41;100.00;99978.78;10260539;28;20379;-66
2023/08/01 09:39:24;;;;;;;3.08;2.67;;;;;;;24.51;100.00;99982.63;10292031;28;20039;-67
2023/08/01 09:44:25;;;;;;;6.07;3.70;;;;;;;25.69;100.00;99970.13;10292223;28;20027;-66
2023/08/01 09:49:27;;;;;;;6.40;2.78;;;;;;;24.72;100.00;99985.69;10293146;28;20061;-67
2023/08/01 09:54:27;;;;;;;6.68;3.50;;;;;;;24.74;100.00;99986.22;10275829;28;20061;-67
2023/08/01 09:59:28;;;;;;;5.88;2.80;;;;;;;24.04;100.00;100001.34;10292603;28;20041;-66
2023/08/01 10:04:32;;;;;;;6.72;3.17;;;;;;;25.14;100.00;99989.91;10275459;28;20086;-68
2023/08/01 10:09:33;;;;;;;8.20;2.67;;;;;;;24.73;100.00;99993.69;10291967;28;20193;-67
2023/08/01 10:14:34;;;;;;;6.75;2.95;;;;;;;24.41;100.00;99996.63;10292345;28;20046;-66
2023/08/01 10:19:34;;;;;;;8.60;2.25;;;;;;;23.76;100.00;99995.81;10260275;28;20053;-67
2023/08/01 10:24:34;;;;;;;13.43;4.05;;;;;;;23.40;100.00;100003.97;10292439;28;20042;-66
2023/08/01 10:29:36;;;;;;;3.92;2.22;;;;;;;23.58;100.00;100005.00;10259246;28;20062;-66
2023/08/01 10:34:36;;;;;;;8.15;3.22;;;;;;;23.47;100.00;100015.44;10274548;28;20062;-67
2023/08/01 10:39:36;;;;;;;7.07;3.78;;;;;;;23.76;100.00;100019.88;10292094;28;20173;-66
2023/08/01 10:44:44;;;;;;;8.15;2.97;;;;;;;24.33;100.00;100012.03;10292192;28;20039;-66
2023/08/01 10:49:45;;;;;;;13.07;3.28;;;;;;;24.15;100.00;100011.03;10274018;28;20037;-67
2023/08/01 10:54:46;;;;;;;9.38;3.10;;;;;;;22.71;100.00;100018.34;10274989;28;20138;-67
2023/08/01 10:59:47;;;;;;;4.28;2.70;;;;;;;22.48;100.00;100041.34;10291134;28;20121;-66
2023/08/01 11:04:57;;;;;;;5.70;3.17;;;;;;;22.17;100.00;100041.75;10291449;28;20087;-67
2023/08/01 11:10:05;;;;;;;5.35;2.85;;;;;;;22.38;100.00;100042.31;10291177;28;20446;-66
2023/08/01 11:15:10;;;;;;;3.42;2.25;;;;;;;24.62;100.00;100042.13;10291485;28;20075;-67
2023/08/01 11:20:11;;;;;;;4.53;3.13;;;;;;;24.19;100.00;100045.28;10273120;28;20045;-67
2023/08/01 11:25:11;;;;;;;6.45;3.08;;;;;;;23.69;100.00;100061.75;10276384;28;20031;-67
2023/08/01 11:30:12;;;;;;;3.78;3.10;;;;;;;24.07;100.00;100054.09;10277363;28;20041;-67
2023/08/01 11:35:17;;;;;;;6.18;2.22;;;;;;;23.72;100.00;100061.16;10274001;28;20427;-66
2023/08/01 11:40:17;;;;;;;3.35;2.55;;;;;;;24.28;100.00;100065.56;10273759;28;20459;-68
2023/08/01 11:45:18;;;;;;;5.43;2.58;;;;;;;23.39;100.00;100060.38;10290847;28;20038;-67
2023/08/01 11:50:23;;;;;;;5.25;2.78;;;;;;;22.78;100.00;100069.59;10273712;28;20105;-66
2023/08/01 11:55:28;;;;;;;2.60;2.42;;;;;;;22.44;100.00;100071.47;10273045;28;20123;-66
2023/08/01 12:00:28;;;;;;;9.73;5.25;;;;;;;22.38;100.00;100078.19;10295298;28;20039;-66
2023/08/01 12:05:29;;;;;;;6.07;1.38;;;;;;;22.64;100.00;100070.34;10280867;28;20043;-68
2023/08/01 12:10:45;;;;;;;8.88;2.35;;;;;;;21.29;100.00;100079.59;10296942;28;20039;-66
2023/08/01 12:15:48;;;;;;;12.18;2.83;;;;;;;21.85;100.00;100080.97;10280992;28;20394;-67
2023/08/01 12:20:48;;;;;;;6.95;3.25;;;;;;;23.41;100.00;100089.31;10265454;28;20047;-66
2023/08/01 12:25:49;;;;;;;6.97;2.33;;;;;;;22.63;100.00;100090.81;10263952;28;20066;-67
2023/08/01 12:30:51;;;;;;;6.63;2.88;;;;;;;23.10;100.00;100091.78;10280285;28;20098;-67
2023/08/01 12:35:51;;;;;;;8.13;2.65;;;;;;;23.26;100.00;100086.84;10279676;28;20063;-66
2023/08/01 12:40:52;;;;;;;7.18;3.40;;;;;;;23.59;100.00;100095.91;10297156;28;20486;-66
2023/08/01 12:45:52;;;;;;;2.42;2.22;;;;;;;22.91;100.00;100089.00;10262739;28;20038;-67
2023/08/01 12:50:53;;;;;;;10.52;3.03;;;;;;;22.94;100.00;100095.88;10279691;28;20363;-67
2023/08/01 12:55:53;;;;;;;5.55;3.22;;;;;;;22.94;100.00;100093.97;10296025;28;20045;-67
2023/08/01 13:00:54;;;;;;;2.67;2.25;;;;;;;22.31;100.00;100104.50;10296236;28;20435;-66
2023/08/01 13:05:56;;;;;;;3.17;2.22;;;;;;;21.57;100.00;100099.22;10295623;28;20449;-66
2023/08/01 13:10:59;;;;;;;6.82;3.50;;;;;;;21.87;100.00;100098.06;10295013;28;20078;-65
2023/08/01 13:15:59;;;;;;;13.90;2.80;;;;;;;22.29;100.00;100110.28;10277790;28;20362;-67
2023/08/01 13:21:00;;;;;;;11.57;3.08;;;;;;;22.17;100.00;100110.69;10278737;28;20031;-67
2023/08/01 13:26:02;;;;;;;3.67;2.60;;;;;;;21.89;100.00;100112.38;10276627;28;20027;-67
2023/08/01 13:31:02;;;;;;;2.35;2.10;;;;;;;22.24;100.00;100116.69;10294258;28;20129;-67
2023/08/01 13:36:02;;;;;;;3.35;2.67;;;;;;;22.15;100.00;100123.13;10276546;28;20062;-67
2023/08/01 13:41:03;;;;;;;5.55;2.40;;;;;;;22.36;100.00;100115.44;10276824;28;20065;-67
2023/08/01 13:46:17;;;;;;;8.30;2.10;;;;;;;22.10;100.00;100120.41;10244490;28;20035;-66
2023/08/01 13:51:18;;;;;;;3.70;2.20;;;;;;;22.45;100.00;100131.03;10276679;28;20041;-66
2023/08/01 13:56:18;;;;;;;3.33;2.65;;;;;;;22.57;100.00;100113.25;10294563;28;20465;-67
2023/08/01 14:01:18;;;;;;;7.15;2.25;;;;;;;22.81;100.00;100127.78;10295180;28;20066;-68
2023/08/01 14:06:19;;;;;;;2.25;2.05;;;;;;;22.40;100.00;100114.56;10294094;28;20356;-67
2023/08/01 14:11:19;;;;;;;5.80;2.53;;;;;;;22.17;100.00;100127.25;10276435;28;20034;-68
2023/08/01 14:16:20;;;;;;;4.25;2.33;;;;;;;21.86;100.00;100120.38;10294466;28;20443;-66
2023/08/01 14:21:20;;;;;;;9.65;2.58;;;;;;;22.40;100.00;100124.75;10292276;28;20370;-67
2023/08/01 14:26:21;;;;;;;4.63;2.40;;;;;;;21.29;100.00;100153.13;10274878;28;20035;-67
2023/08/01 14:31:21;;;;;;;6.05;2.67;;;;;;;19.35;100.00;100156.50;10276177;28;20426;-65
2023/08/01 14:36:21;;;;;;;2.65;1.73;;;;;;;18.56;100.00;100156.56;10293422;28;20058;-66
2023/08/01 14:41:22;;;;;;;5.45;1.65;;;;;;;18.85;100.00;100149.84;10290687;28;20113;-67
2023/08/01 14:46:23;;;;;;;3.92;2.55;;;;;;;18.81;100.00;100158.59;10275728;28;20125;-68
2023/08/01 14:51:23;;;;;;;3.40;2.15;;;;;;;18.90;100.00;100155.34;10276525;28;20031;-68
2023/08/01 14:56:24;;;;;;;5.43;2.55;;;;;;;19.43;100.00;100162.28;10275344;28;20133;-68
2023/08/01 15:01:24;;;;;;;7.82;2.47;;;;;;;19.96;100.00;100164.72;10275263;28;20094;-67
2023/08/01 15:06:26;;;;;;;7.38;3.13;;;;;;;20.45;100.00;100142.00;10274832;28;20367;-66
2023/08/01 15:11:26;;;;;;;3.90;2.80;;;;;;;20.28;100.00;100161.63;10292666;28;20038;-68
2023/08/01 15:16:27;;;;;;;6.03;2.05;;;;;;;19.93;100.00;100159.78;10291819;28;20034;-66
2023/08/01 15:21:28;;;;;;;8.18;3.67;;;;;;;19.96;100.00;100153.72;10292311;28;20045;-68
2023/08/01 15:26:29;;;;;;;7.82;2.88;;;;;;;19.99;100.00;100158.66;10292563;28;20041;-67
2023/08/01 15:31:29;;;;;;;4.90;2.78;;;;;;;20.17;100.00;100157.25;10290816;28;20348;-66
2023/08/01 15:36:30;;;;;;;2.67;2.30;;;;;;;20.43;100.00;100155.25;10265188;28;20062;-67
2023/08/01 15:41:30;;;;;;;6.13;2.25;;;;;;;20.60;100.00;100158.50;10298758;28;20083;-66
2023/08/01 15:46:31;;;;;;;1.23;1.23;;;;;;;20.40;100.00;100173.13;10281256;28;20474;-67
2023/08/01 15:51:31;;;;;;;2.17;1.83;;;;;;;20.28;100.00;100174.53;10298883;28;20043;-68
2023/08/01 15:56:32;;;;;;;4.30;2.22;;;;;;;20.22;100.00;100168.22;10265015;28;20462;-66
2023/08/01 16:01:32;;;;;;;6.68;2.53;;;;;;;20.28;100.00;100174.53;10280714;28;20030;-66
2023/08/01 16:06:33;;;;;;;3.67;2.25;;;;;;;20.34;100.00;100177.00;10280308;28;20057;-66
2023/08/01 16:11:33;;;;;;;6.80;2.13;;;;;;;20.38;100.00;100166.25;10297455;28;20046;-66
2023/08/01 16:16:33;;;;;;;3.63;2.17;;;;;;;20.48;100.00;100174.47;10298857;28;20414;-67
2023/08/01 16:21:34;;;;;;;3.60;1.63;;;;;;;20.58;100.00;100170.88;10297991;28;20383;-66
2023/08/01 16:26:34;;;;;;;1.77;1.67;;;;;;;20.46;100.00;100168.44;10280281;28;20070;-67
2023/08/01 16:31:35;;;;;;;6.68;2.40;;;;;;;20.37;100.00;100178.38;10298623;28;20050;-67
2023/08/01 16:36:35;;;;;;;3.90;2.88;;;;;;;20.27;100.00;100184.72;10299795;28;20486;-68
2023/08/01 16:41:36;;;;;;;2.80;2.58;;;;;;;20.12;100.00;100173.75;10279709;28;20038;-66
2023/08/01 16:46:36;;;;;;;9.07;1.95;;;;;;;19.98;100.00;100170.78;10278566;28;20126;-67
2023/08/01 16:51:36;;;;;;;6.57;2.33;;;;;;;19.95;100.00;100180.41;10279344;28;20039;-67
2023/08/01 16:56:37;;;;;;;4.57;2.40;;;;;;;19.90;100.00;100176.81;10278995;28;20031;-67
2023/08/01 17:01:38;;;;;;;2.83;2.17;;;;;;;19.90;100.00;100165.84;10296425;28;20043;-67
2023/08/01 17:06:38;;;;;;;3.40;1.92;;;;;;;19.78;100.00;100165.28;10295385;28;20038;-67
2023/08/01 17:11:39;;;;;;;6.40;1.98;;;;;;;19.70;100.00;100164.75;10279086;28;20518;-67
2023/08/01 17:16:40;;;;;;;5.32;1.90;;;;;;;19.58;100.00;100158.69;10294206;28;20033;-66
2023/08/01 17:21:41;;;;;;;5.50;2.25;;;;;;;19.56;100.00;100169.16;10293920;28;20133;-67
2023/08/01 17:26:42;;;;;;;7.28;2.75;;;;;;;19.48;100.00;100161.44;10278013;28;20105;-67
2023/08/01 17:31:42;;;;;;;11.13;3.72;;;;;;;19.42;100.00;100165.28;10262704;28;20509;-66
2023/08/01 17:36:43;;;;;;;7.40;2.65;;;;;;;19.29;100.00;100161.97;10293986;28;20055;-67
2023/08/01 17:41:43;;;;;;;9.45;2.33;;;;;;;19.18;100.00;100160.34;10294336;28;20499;-66
2023/08/01 17:46:44;;;;;;;3.30;1.98;;;;;;;19.19;100.00;100164.72;10293327;28;20046;-67
2023/08/01 17:51:44;;;;;;;2.08;1.98;;;;;;;19.25;100.00;100160.88;10261206;28;20042;-67
2023/08/01 17:56:45;;;;;;;3.00;2.55;;;;;;;19.24;100.00;100156.50;10293806;28;20487;-67
2023/08/01 18:01:46;;;;;;;4.82;2.50;;;;;;;19.22;100.00;100166.91;10275409;28;20046;-67
2023/08/01 18:06:46;;;;;;;3.38;1.80;;;;;;;19.18;100.00;100176.00;10260730;28;20038;-66
2023/08/01 18:11:47;;;;;;;3.42;2.47;;;;;;;19.11;100.00;100168.00;10292975;28;20043;-68
2023/08/01 18:16:47;;;;;;;4.22;2.83;;;;;;;18.98;100.00;100185.81;10276415;28;20459;-66
2023/08/01 18:21:47;;;;;;;8.88;3.10;;;;;;;18.85;100.00;100185.50;10292142;28;20148;-69
2023/08/01 18:26:48;;;;;;;9.10;3.15;;;;;;;18.85;100.00;100177.28;10275751;28;20058;-67
2023/08/01 18:31:48;;;;;;;20.35;4.03;;;;;;;18.79;100.00;100188.25;10275920;28;20122;-68
2023/08/01 18:36:49;;;;;;;4.60;3.25;;;;;;;18.78;100.00;100185.75;10293121;28;20059;-67
2023/08/01 18:41:49;;;;;;;6.85;2.60;;;;;;;18.74;100.00;100190.13;10292638;28;20074;-68
2023/08/01 18:46:52;;;;;;;9.07;3.47;;;;;;;18.72;100.00;100198.63;10293542;28;20124;-67
2023/08/01 18:51:53;;;;;;;3.00;2.70;;;;;;;18.70;100.00;100194.50;10293816;28;20165;-68
2023/08/01 18:56:53;;;;;;;11.18;2.75;;;;;;;18.59;100.00;100204.56;10293133;28;20162;-67
2023/08/01 19:01:54;;;;;;;9.27;3.20;;;;;;;18.55;100.00;100207.03;10293338;28;20038;-67
2023/08/01 19:06:54;;;;;;;4.28;2.53;;;;;;;18.52;100.00;100204.00;10293379;28;20039;-66
2023/08/01 19:11:55;;;;;;;5.30;2.55;;;;;;;18.47;100.00;100199.31;10301577;28;20058;-67
2023/08/01 19:16:55;;;;;;;2.50;2.30;;;;;;;18.50;100.00;100208.91;10299895;28;20073;-67
2023/08/01 19:21:56;;;;;;;9.18;2.53;;;;;;;18.44;100.00;100201.75;10300044;28;20054;-68
2023/08/01 19:26:56;;;;;;;12.38;3.70;;;;;;;18.29;100.00;100202.53;10282992;28;20043;-67
2023/08/01 19:31:56;;;;;;;8.70;3.53;;;;;;;18.28;100.00;100209.06;10282099;28;20102;-67
2023/08/01 19:36:58;;;;;;;11.90;4.30;;;;;;;18.29;100.00;100202.53;10300495;28;20055;-66
2023/08/01 19:41:58;;;;;;;10.82;4.28;;;;;;;18.24;100.00;100191.53;10281493;28;20051;-67
2023/08/01 19:46:59;;;;;;;12.00;5.10;;;;;;;18.18;100.00;100187.91;10298377;28;20042;-68
2023/08/01 19:51:59;;;;;;;12.52;4.07;;;;;;;18.13;100.00;100190.66;10297703;28;20038;-67
2023/08/01 19:57:00;;;;;;;9.45;3.55;;;;;;;18.10;100.00;100202.13;10280729;28;20050;-67
2023/08/01 20:02:00;;;;;;;18.38;4.90;;;;;;;18.00;100.00;100188.38;10297898;28;20086;-67
2023/08/01 20:07:02;;;;;;;13.60;4.82;;;;;;;17.76;100.00;100191.44;10296741;28;20395;-67
2023/08/01 20:12:03;;;;;;;18.13;4.00;;;;;;;17.49;100.00;100186.03;10280967;28;20482;-66
2023/08/01 20:17:04;;;;;;;18.75;6.13;;;;;;;17.31;100.00;100179.03;10296746;28;20104;-68
2023/08/01 20:22:05;;;;;;;20.60;5.65;;;;;;;17.17;100.00;100177.81;10278869;28;20034;-67
2023/08/01 20:27:05;;;;;;;10.13;5.90;;;;;;;17.06;100.00;100176.88;10281680;28;20043;-67
2023/08/01 20:32:07;;;;;;;18.63;6.03;;;;;;;16.95;100.00;100192.34;10278741;28;20108;-66
2023/08/01 20:37:07;;;;;;;15.68;6.22;;;;;;;16.86;100.00;100193.06;10279818;28;20150;-65
2023/08/01 20:42:08;;;;;;;18.90;5.82;;;;;;;16.78;100.00;100186.13;10296365;28;20495;-68
2023/08/01 20:47:09;;;;;;;27.45;6.53;;;;;;;16.70;100.00;100184.66;10263199;28;20042;-68
2023/08/01 20:52:09;;;;;;;15.82;6.38;;;;;;;16.61;100.00;100185.38;10296763;28;20077;-66
2023/08/01 20:57:10;;;;;;;11.52;5.10;;;;;;;16.56;100.00;100174.34;10295967;28;20035;-66
2023/08/01 21:02:10;;;;;;;17.48;6.53;;;;;;;16.50;100.00;100182.50;10296466;28;20045;-66
2023/08/01 21:07:10;;;;;;;26.05;7.95;;;;;;;16.47;100.00;100184.94;10295707;28;20062;-66
2023/08/01 21:12:11;;;;;;;15.15;6.22;;;;;;;16.48;100.00;100184.66;10294721;28;20543;-68
2023/08/01 21:17:11;;;;;;;17.13;4.32;;;;;;;16.43;100.00;100181.88;10279169;28;20420;-67
2023/08/01 21:22:11;;;;;;;10.65;5.80;;;;;;;16.39;100.00;100172.53;10295470;28;20115;-66
2023/08/01 21:27:12;;;;;;;10.07;6.03;;;;;;;16.35;100.00;100181.50;10295146;28;20027;-67
2023/08/01 21:32:12;;;;;;;15.38;5.35;;;;;;;16.35;100.00;100165.09;10296023;28;20128;-67
2023/08/01 21:37:13;;;;;;;11.07;5.28;;;;;;;16.33;100.00;100159.03;10296781;28;20062;-67
2023/08/01 21:42:15;;;;;;;15.02;5.40;;;;;;;16.31;100.00;100142.09;10298729;28;20493;-66
2023/08/01 21:47:15;;;;;;;17.10;5.70;;;;;;;16.28;100.00;100138.78;10277560;28;20042;-66
2023/08/01 21:52:15;;;;;;;16.90;5.00;;;;;;;16.34;100.00;100136.94;10276926;28;20038;-67
2023/08/01 21:57:16;;;;;;;11.93;4.78;;;;;;;16.40;100.00;100141.41;10292313;28;20526;-68
2023/08/01 22:02:16;;;;;;;8.68;3.78;;;;;;;16.48;100.00;100138.19;10276351;28;20050;-69
2023/08/01 22:07:17;;;;;;;12.95;4.95;;;;;;;16.44;100.00;100128.88;10293403;28;20039;-68
2023/08/01 22:12:17;;;;;;;10.32;3.88;;;;;;;16.43;100.00;100127.22;10294573;28;20094;-68
2023/08/01 22:17:17;;;;;;;8.45;3.70;;;;;;;16.44;100.00;100126.13;10277053;28;20031;-67
2023/08/01 22:22:23;;;;;;;14.48;5.20;;;;;;;16.41;100.00;100123.91;10275262;28;20137;-68
2023/08/01 22:27:23;;;;;;;9.02;3.67;;;;;;;16.44;100.00;100109.75;10293404;28;20030;-67
2023/08/01 22:32:24;;;;;;;13.18;5.00;;;;;;;16.59;100.00;100105.50;10292884;28;20118;-67
2023/08/01 22:37:24;;;;;;;12.98;5.65;;;;;;;16.65;100.00;100099.03;10292356;28;20438;-67
2023/08/01 22:42:25;;;;;;;14.07;5.22;;;;;;;16.77;100.00;100090.72;10274218;28;20041;-67
2023/08/01 22:47:25;;;;;;;5.55;3.40;;;;;;;16.88;100.00;100098.75;10274307;28;20039;-67